sensor_id;sensor_type;location;lat;lon;timestamp;noise_LAeq;noise_LA_min;noise_LA_max;noise_LA01;noise_LA95
57092;Laerm;42968;52.094;4.328;2023-05-07T00:01:26;59.41;39.58;74.31;;
57092;Laerm;42968;52.094;4.328;2023-05-07T00:03:52;56.91;37.88;71.91;;
57092;Laerm;42968;52.094;4.328;2023-05-07T00:06:17;59.85;38.52;73.74;;
57092;Laerm;42968;52.094;4.328;2023-05-07T00:08:42;58.84;37.52;76.46;;
57092;Laerm;42968;52.094;4.328;2023-05-07T00:11:08;58.51;38.21;77.97;;
57092;Laerm;42968;52.094;4.328;2023-05-07T00:13:33;60.31;38.81;74.09;;
57092;Laerm;42968;52.094;4.328;2023-05-07T00:16:01;58.28;37.70;73.43;;
57092;Laerm;42968;52.094;4.328;2023-05-07T00:18:26;57.22;39.81;70.45;;
57092;Laerm;42968;52.094;4.328;2023-05-07T00:20:51;57.31;38.81;71.51;;
57092;Laerm;42968;52.094;4.328;2023-05-07T00:23:16;59.56;39.70;76.45;;
57092;Laerm;42968;52.094;4.328;2023-05-07T00:25:42;58.99;39.34;73.90;;
57092;Laerm;42968;52.094;4.328;2023-05-07T00:28:07;42.97;38.81;55.94;;
57092;Laerm;42968;52.094;4.328;2023-05-07T00:30:32;55.38;39.34;71.18;;
57092;Laerm;42968;52.094;4.328;2023-05-07T00:32:58;52.05;38.81;67.97;;
57092;Laerm;42968;52.094;4.328;2023-05-07T00:35:23;55.22;38.60;72.58;;
57092;Laerm;42968;52.094;4.328;2023-05-07T00:37:48;59.13;38.52;72.96;;
57092;Laerm;42968;52.094;4.328;2023-05-07T00:40:14;64.30;38.95;78.45;;
57092;Laerm;42968;52.094;4.328;2023-05-07T00:42:39;57.35;38.52;70.10;;
57092;Laerm;42968;52.094;4.328;2023-05-07T00:45:04;58.11;38.67;74.89;;
57092;Laerm;42968;52.094;4.328;2023-05-07T00:47:30;60.51;39.70;76.88;;
57092;Laerm;42968;52.094;4.328;2023-05-07T00:49:55;55.44;37.12;69.86;;
57092;Laerm;42968;52.094;4.328;2023-05-07T00:52:22;59.07;39.58;71.59;;
57092;Laerm;42968;52.094;4.328;2023-05-07T00:54:49;49.76;38.37;64.85;;
57092;Laerm;42968;52.094;4.328;2023-05-07T00:57:14;60.12;37.88;78.55;;
57092;Laerm;42968;52.094;4.328;2023-05-07T00:59:39;61.86;37.32;78.65;;
57092;Laerm;42968;52.094;4.328;2023-05-07T01:02:05;57.88;37.70;78.07;;
57092;Laerm;42968;52.094;4.328;2023-05-07T01:04:31;58.96;39.08;73.15;;
57092;Laerm;42968;52.094;4.328;2023-05-07T01:06:56;56.07;37.70;68.25;;
57092;Laerm;42968;52.094;4.328;2023-05-07T01:09:23;55.95;38.52;69.42;;
57092;Laerm;42968;52.094;4.328;2023-05-07T01:11:49;54.11;38.81;70.82;;
57092;Laerm;42968;52.094;4.328;2023-05-07T01:14:15;55.93;37.70;71.79;;
57092;Laerm;42968;52.094;4.328;2023-05-07T01:16:41;56.48;38.67;73.17;;
57092;Laerm;42968;52.094;4.328;2023-05-07T01:19:07;59.15;39.08;73.76;;
57092;Laerm;42968;52.094;4.328;2023-05-07T01:21:33;58.46;38.67;74.76;;
57092;Laerm;42968;52.094;4.328;2023-05-07T01:23:59;54.71;37.12;72.39;;
57092;Laerm;42968;52.094;4.328;2023-05-07T01:26:25;40.86;37.12;47.00;;
57092;Laerm;42968;52.094;4.328;2023-05-07T01:28:50;61.98;38.05;76.84;;
57092;Laerm;42968;52.094;4.328;2023-05-07T01:31:16;58.30;38.95;71.35;;
57092;Laerm;42968;52.094;4.328;2023-05-07T01:33:41;55.16;37.52;73.24;;
57092;Laerm;42968;52.094;4.328;2023-05-07T01:36:08;52.20;37.70;68.08;;
57092;Laerm;42968;52.094;4.328;2023-05-07T01:38:36;52.16;37.52;70.85;;
57092;Laerm;42968;52.094;4.328;2023-05-07T01:41:02;55.41;37.52;70.51;;
57092;Laerm;42968;52.094;4.328;2023-05-07T01:43:28;54.28;38.21;67.97;;
57092;Laerm;42968;52.094;4.328;2023-05-07T01:45:53;51.98;38.52;68.77;;
57092;Laerm;42968;52.094;4.328;2023-05-07T01:48:19;56.49;39.34;72.94;;
57092;Laerm;42968;52.094;4.328;2023-05-07T01:50:44;41.41;37.70;44.31;;
57092;Laerm;42968;52.094;4.328;2023-05-07T01:53:10;56.21;37.32;76.55;;
57092;Laerm;42968;52.094;4.328;2023-05-07T01:55:36;54.05;37.87;68.28;;
57092;Laerm;42968;52.094;4.328;2023-05-07T01:58:02;42.64;37.88;54.43;;
57092;Laerm;42968;52.094;4.328;2023-05-07T02:00:27;59.37;38.37;73.32;;
57092;Laerm;42968;52.094;4.328;2023-05-07T02:02:52;55.66;36.91;72.77;;
57092;Laerm;42968;52.094;4.328;2023-05-07T02:05:18;51.66;37.52;69.45;;
57092;Laerm;42968;52.094;4.328;2023-05-07T02:07:43;60.07;38.37;73.88;;
57092;Laerm;42968;52.094;4.328;2023-05-07T02:10:08;45.34;37.32;61.47;;
57092;Laerm;42968;52.094;4.328;2023-05-07T02:12:34;52.75;37.88;67.67;;
57092;Laerm;42968;52.094;4.328;2023-05-07T02:14:59;60.53;38.37;72.75;;
57092;Laerm;42968;52.094;4.328;2023-05-07T02:17:24;52.64;36.69;72.01;;
57092;Laerm;42968;52.094;4.328;2023-05-07T02:19:50;41.55;37.52;56.33;;
57092;Laerm;42968;52.094;4.328;2023-05-07T02:22:16;57.85;38.02;71.53;;
57092;Laerm;42968;52.094;4.328;2023-05-07T02:24:41;45.36;37.32;62.88;;
57092;Laerm;42968;52.094;4.328;2023-05-07T02:27:06;54.69;37.32;68.16;;
57092;Laerm;42968;52.094;4.328;2023-05-07T02:29:32;57.97;37.88;74.56;;
57092;Laerm;42968;52.094;4.328;2023-05-07T02:31:57;47.73;38.74;63.53;;
57092;Laerm;42968;52.094;4.328;2023-05-07T02:34:22;58.91;38.67;75.75;;
57092;Laerm;42968;52.094;4.328;2023-05-07T02:36:47;55.35;37.32;72.05;;
57092;Laerm;42968;52.094;4.328;2023-05-07T02:39:13;52.65;37.87;70.48;;
57092;Laerm;42968;52.094;4.328;2023-05-07T02:41:38;54.10;36.45;74.34;;
57092;Laerm;42968;52.094;4.328;2023-05-07T02:44:04;54.96;37.70;73.97;;
57092;Laerm;42968;52.094;4.328;2023-05-07T02:46:29;40.81;37.52;45.36;;
57092;Laerm;42968;52.094;4.328;2023-05-07T02:48:54;53.13;37.32;72.47;;
57092;Laerm;42968;52.094;4.328;2023-05-07T02:51:20;55.59;37.88;70.57;;
57092;Laerm;42968;52.094;4.328;2023-05-07T02:53:45;54.81;36.91;75.25;;
57092;Laerm;42968;52.094;4.328;2023-05-07T02:56:11;57.07;38.67;73.97;;
57092;Laerm;42968;52.094;4.328;2023-05-07T02:58:36;58.35;39.08;74.72;;
57092;Laerm;42968;52.094;4.328;2023-05-07T03:01:01;54.77;38.05;69.46;;
57092;Laerm;42968;52.094;4.328;2023-05-07T03:03:26;54.54;37.70;69.88;;
57092;Laerm;42968;52.094;4.328;2023-05-07T03:05:52;56.97;38.81;73.80;;
57092;Laerm;42968;52.094;4.328;2023-05-07T03:08:17;51.51;37.12;68.24;;
57092;Laerm;42968;52.094;4.328;2023-05-07T03:10:42;41.50;38.32;51.26;;
57092;Laerm;42968;52.094;4.328;2023-05-07T03:13:07;54.14;37.88;70.39;;
57092;Laerm;42968;52.094;4.328;2023-05-07T03:15:33;56.13;38.05;75.69;;
57092;Laerm;42968;52.094;4.328;2023-05-07T03:17:58;59.47;38.74;75.97;;
57092;Laerm;42968;52.094;4.328;2023-05-07T03:20:23;55.72;39.21;73.01;;
57092;Laerm;42968;52.094;4.328;2023-05-07T03:22:48;60.86;39.81;76.54;;
57092;Laerm;42968;52.094;4.328;2023-05-07T03:25:14;58.60;39.58;75.47;;
57092;Laerm;42968;52.094;4.328;2023-05-07T03:27:39;59.65;39.46;73.73;;
57092;Laerm;42968;52.094;4.328;2023-05-07T03:30:06;59.75;40.62;75.80;;
57092;Laerm;42968;52.094;4.328;2023-05-07T03:32:32;56.75;39.81;73.29;;
57092;Laerm;42968;52.094;4.328;2023-05-07T03:34:58;62.62;43.34;75.46;;
57092;Laerm;42968;52.094;4.328;2023-05-07T03:37:23;59.33;40.71;74.36;;
57092;Laerm;42968;52.094;4.328;2023-05-07T03:39:48;62.36;40.43;77.14;;
57092;Laerm;42968;52.094;4.328;2023-05-07T03:42:14;58.44;40.03;75.21;;
57092;Laerm;42968;52.094;4.328;2023-05-07T03:44:40;60.64;41.06;78.14;;
57092;Laerm;42968;52.094;4.328;2023-05-07T03:47:05;57.49;39.34;73.90;;
57092;Laerm;42968;52.094;4.328;2023-05-07T03:49:30;62.94;40.03;78.54;;
57092;Laerm;42968;52.094;4.328;2023-05-07T03:51:55;58.01;40.03;75.49;;
57092;Laerm;42968;52.094;4.328;2023-05-07T03:54:21;54.53;39.34;70.28;;
57092;Laerm;42968;52.094;4.328;2023-05-07T03:56:46;59.01;40.33;77.00;;
57092;Laerm;42968;52.094;4.328;2023-05-07T03:59:12;59.11;39.34;75.10;;
57092;Laerm;42968;52.094;4.328;2023-05-07T04:01:38;62.06;40.98;75.52;;
57092;Laerm;42968;52.094;4.328;2023-05-07T04:04:03;62.22;42.59;76.25;;
57092;Laerm;42968;52.094;4.328;2023-05-07T04:06:29;56.18;40.33;76.03;;
57092;Laerm;42968;52.094;4.328;2023-05-07T04:08:54;62.04;40.23;73.78;;
57092;Laerm;42968;52.094;4.328;2023-05-07T04:11:19;58.42;39.46;75.41;;
57092;Laerm;42968;52.094;4.328;2023-05-07T04:13:45;57.48;39.34;69.93;;
57092;Laerm;42968;52.094;4.328;2023-05-07T04:16:10;61.15;39.68;77.94;;
57092;Laerm;42968;52.094;4.328;2023-05-07T04:18:36;62.83;40.36;77.46;;
57092;Laerm;42968;52.094;4.328;2023-05-07T04:21:01;62.38;41.06;77.27;;
57092;Laerm;42968;52.094;4.328;2023-05-07T04:23:26;62.19;41.89;76.38;;
57092;Laerm;42968;52.094;4.328;2023-05-07T04:25:51;58.62;41.53;73.27;;
57092;Laerm;42968;52.094;4.328;2023-05-07T04:28:17;63.19;40.33;76.89;;
57092;Laerm;42968;52.094;4.328;2023-05-07T04:30:42;64.24;40.33;76.48;;
57092;Laerm;42968;52.094;4.328;2023-05-07T04:33:08;63.78;40.80;77.37;;
57092;Laerm;42968;52.094;4.328;2023-05-07T04:35:33;63.93;40.53;75.74;;
57092;Laerm;42968;52.094;4.328;2023-05-07T04:37:58;64.81;40.89;79.46;;
57092;Laerm;42968;52.094;4.328;2023-05-07T04:40:24;63.58;41.22;81.59;;
57092;Laerm;42968;52.094;4.328;2023-05-07T04:42:49;61.17;41.75;76.34;;
57092;Laerm;42968;52.094;4.328;2023-05-07T04:45:15;60.31;41.82;74.07;;
57092;Laerm;42968;52.094;4.328;2023-05-07T04:47:40;61.59;41.53;73.19;;
57092;Laerm;42968;52.094;4.328;2023-05-07T04:50:09;61.42;40.71;75.44;;
57092;Laerm;42968;52.094;4.328;2023-05-07T04:52:34;61.52;40.13;76.05;;
57092;Laerm;42968;52.094;4.328;2023-05-07T04:54:59;60.34;40.43;75.91;;
57092;Laerm;42968;52.094;4.328;2023-05-07T04:57:25;63.82;42.16;76.96;;
57092;Laerm;42968;52.094;4.328;2023-05-07T04:59:51;59.42;40.89;72.22;;
57092;Laerm;42968;52.094;4.328;2023-05-07T05:02:16;63.28;40.13;76.73;;
57092;Laerm;42968;52.094;4.328;2023-05-07T05:04:43;64.33;43.81;77.17;;
57092;Laerm;42968;52.094;4.328;2023-05-07T05:07:08;63.10;42.22;78.01;;
57092;Laerm;42968;52.094;4.328;2023-05-07T05:09:34;59.68;39.92;74.99;;
57092;Laerm;42968;52.094;4.328;2023-05-07T05:11:59;59.64;42.47;71.42;;
57092;Laerm;42968;52.094;4.328;2023-05-07T05:14:24;62.10;39.92;76.09;;
57092;Laerm;42968;52.094;4.328;2023-05-07T05:16:50;62.33;40.71;80.38;;
57092;Laerm;42968;52.094;4.328;2023-05-07T05:19:15;62.42;40.89;76.82;;
57092;Laerm;42968;52.094;4.328;2023-05-07T05:21:41;60.91;44.39;73.92;;
57092;Laerm;42968;52.094;4.328;2023-05-07T05:24:06;63.78;42.29;76.98;;
57092;Laerm;42968;52.094;4.328;2023-05-07T05:26:31;62.86;41.46;75.17;;
57092;Laerm;42968;52.094;4.328;2023-05-07T05:28:57;61.63;42.53;73.79;;
57092;Laerm;42968;52.094;4.328;2023-05-07T05:31:22;60.60;42.82;72.55;;
57092;Laerm;42968;52.094;4.328;2023-05-07T05:33:47;62.83;44.76;73.92;;
57092;Laerm;42968;52.094;4.328;2023-05-07T05:36:12;61.09;44.54;74.36;;
57092;Laerm;42968;52.094;4.328;2023-05-07T05:38:38;60.63;43.19;75.23;;
57092;Laerm;42968;52.094;4.328;2023-05-07T05:41:03;61.24;42.03;79.29;;
57092;Laerm;42968;52.094;4.328;2023-05-07T05:43:29;62.08;45.94;72.60;;
57092;Laerm;42968;52.094;4.328;2023-05-07T05:45:55;60.77;39.92;73.52;;
57092;Laerm;42968;52.094;4.328;2023-05-07T05:48:20;64.67;42.41;78.74;;
57092;Laerm;42968;52.094;4.328;2023-05-07T05:50:45;60.56;40.33;76.70;;
57092;Laerm;42968;52.094;4.328;2023-05-07T05:53:11;61.00;40.80;76.35;;
57092;Laerm;42968;52.094;4.328;2023-05-07T05:55:36;61.58;41.46;71.81;;
57092;Laerm;42968;52.094;4.328;2023-05-07T05:58:01;63.36;42.59;75.87;;
57092;Laerm;42968;52.094;4.328;2023-05-07T06:00:28;61.60;41.22;75.66;;
57092;Laerm;42968;52.094;4.328;2023-05-07T06:02:54;62.59;42.71;78.29;;
57092;Laerm;42968;52.094;4.328;2023-05-07T06:05:19;61.01;41.82;77.34;;
57092;Laerm;42968;52.094;4.328;2023-05-07T06:07:45;61.70;42.93;77.03;;
57092;Laerm;42968;52.094;4.328;2023-05-07T06:10:10;63.07;41.89;75.67;;
57092;Laerm;42968;52.094;4.328;2023-05-07T06:12:35;64.98;43.81;77.82;;
57092;Laerm;42968;52.094;4.328;2023-05-07T06:15:01;66.78;47.81;81.15;;
57092;Laerm;42968;52.094;4.328;2023-05-07T06:17:26;65.98;45.30;83.70;;
57092;Laerm;42968;52.094;4.328;2023-05-07T06:19:52;63.27;43.44;76.61;;
57092;Laerm;42968;52.094;4.328;2023-05-07T06:22:17;63.74;43.54;80.50;;
57092;Laerm;42968;52.094;4.328;2023-05-07T06:24:42;63.91;45.39;75.53;;
57092;Laerm;42968;52.094;4.328;2023-05-07T06:27:08;65.23;44.15;79.29;;
57092;Laerm;42968;52.094;4.328;2023-05-07T06:29:33;63.38;40.71;77.27;;
57092;Laerm;42968;52.094;4.328;2023-05-07T06:32:11;63.19;43.19;77.19;;
57092;Laerm;42968;52.094;4.328;2023-05-07T06:34:37;66.44;46.57;77.74;;
57092;Laerm;42968;52.094;4.328;2023-05-07T06:37:02;64.22;42.22;75.92;;
57092;Laerm;42968;52.094;4.328;2023-05-07T06:39:27;64.82;41.96;77.81;;
57092;Laerm;42968;52.094;4.328;2023-05-07T06:41:53;64.52;44.80;77.10;;
57092;Laerm;42968;52.094;4.328;2023-05-07T06:44:18;64.57;42.71;75.49;;
57092;Laerm;42968;52.094;4.328;2023-05-07T06:46:43;64.67;43.09;75.51;;
57092;Laerm;42968;52.094;4.328;2023-05-07T06:49:08;65.11;42.22;75.61;;
57092;Laerm;42968;52.094;4.328;2023-05-07T06:51:34;66.39;43.14;76.34;;
57092;Laerm;42968;52.094;4.328;2023-05-07T06:53:59;67.15;44.27;80.17;;
57092;Laerm;42968;52.094;4.328;2023-05-07T06:56:24;65.16;43.72;75.99;;
57092;Laerm;42968;52.094;4.328;2023-05-07T06:58:50;64.76;43.72;74.85;;
57092;Laerm;42968;52.094;4.328;2023-05-07T07:01:15;64.44;45.97;74.75;;
57092;Laerm;42968;52.094;4.328;2023-05-07T07:03:40;65.54;42.53;76.59;;
57092;Laerm;42968;52.094;4.328;2023-05-07T07:06:06;64.75;43.24;76.34;;
57092;Laerm;42968;52.094;4.328;2023-05-07T07:08:31;65.95;47.36;75.71;;
57092;Laerm;42968;52.094;4.328;2023-05-07T07:10:57;65.47;46.48;73.81;;
57092;Laerm;42968;52.094;4.328;2023-05-07T07:13:22;64.24;44.39;80.18;;
57092;Laerm;42968;52.094;4.328;2023-05-07T07:15:47;66.43;42.59;76.87;;
57092;Laerm;42968;52.094;4.328;2023-05-07T07:18:12;68.04;47.10;80.09;;
57092;Laerm;42968;52.094;4.328;2023-05-07T07:20:38;65.41;44.39;75.82;;
57092;Laerm;42968;52.094;4.328;2023-05-07T07:23:03;67.29;45.42;78.05;;
57092;Laerm;42968;52.094;4.328;2023-05-07T07:25:28;66.62;43.81;76.96;;
57092;Laerm;42968;52.094;4.328;2023-05-07T07:27:54;68.25;47.04;79.59;;
57092;Laerm;42968;52.094;4.328;2023-05-07T07:30:19;64.56;45.14;76.81;;
57092;Laerm;42968;52.094;4.328;2023-05-07T07:32:44;67.44;49.93;78.79;;
57092;Laerm;42968;52.094;4.328;2023-05-07T07:35:11;66.67;52.84;76.43;;
57092;Laerm;42968;52.094;4.328;2023-05-07T07:37:36;65.31;47.12;76.70;;
57092;Laerm;42968;52.094;4.328;2023-05-07T07:40:01;67.45;46.93;77.85;;
57092;Laerm;42968;52.094;4.328;2023-05-07T07:42:28;63.96;43.24;77.24;;
57092;Laerm;42968;52.094;4.328;2023-05-07T07:44:54;70.19;48.92;81.28;;
57092;Laerm;42968;52.094;4.328;2023-05-07T07:47:19;65.85;50.56;79.81;;
57092;Laerm;42968;52.094;4.328;2023-05-07T07:49:44;68.25;45.97;80.82;;
57092;Laerm;42968;52.094;4.328;2023-05-07T07:52:10;68.33;44.27;79.37;;
57092;Laerm;42968;52.094;4.328;2023-05-07T07:54:35;67.53;47.00;78.07;;
57092;Laerm;42968;52.094;4.328;2023-05-07T07:57:01;66.34;45.42;78.29;;
57092;Laerm;42968;52.094;4.328;2023-05-07T07:59:26;66.80;44.69;76.03;;
57092;Laerm;42968;52.094;4.328;2023-05-07T08:01:51;67.59;53.79;75.45;;
57092;Laerm;42968;52.094;4.328;2023-05-07T08:04:20;67.77;48.12;79.03;;
57092;Laerm;42968;52.094;4.328;2023-05-07T08:06:45;68.22;45.20;82.79;;
57092;Laerm;42968;52.094;4.328;2023-05-07T08:09:11;68.56;46.80;79.73;;
57092;Laerm;42968;52.094;4.328;2023-05-07T08:11:36;67.51;47.28;79.19;;
57092;Laerm;42968;52.094;4.328;2023-05-07T08:14:01;67.32;46.78;76.53;;
57092;Laerm;42968;52.094;4.328;2023-05-07T08:16:27;64.98;46.18;77.03;;
57092;Laerm;42968;52.094;4.328;2023-05-07T08:18:53;68.46;44.83;79.24;;
57092;Laerm;42968;52.094;4.328;2023-05-07T08:21:18;64.27;44.69;76.21;;
57092;Laerm;42968;52.094;4.328;2023-05-07T08:23:43;66.55;44.87;75.28;;
57092;Laerm;42968;52.094;4.328;2023-05-07T08:26:09;67.73;47.00;77.00;;
57092;Laerm;42968;52.094;4.328;2023-05-07T08:28:34;68.33;49.12;84.55;;
57092;Laerm;42968;52.094;4.328;2023-05-07T08:30:59;68.40;50.49;78.29;;
57092;Laerm;42968;52.094;4.328;2023-05-07T08:33:26;65.40;48.52;74.80;;
57092;Laerm;42968;52.094;4.328;2023-05-07T08:35:51;67.93;50.56;76.28;;
57092;Laerm;42968;52.094;4.328;2023-05-07T08:38:16;66.50;44.39;75.54;;
57092;Laerm;42968;52.094;4.328;2023-05-07T08:40:41;67.21;45.45;76.32;;
57092;Laerm;42968;52.094;4.328;2023-05-07T08:43:07;66.51;47.16;77.60;;
57092;Laerm;42968;52.094;4.328;2023-05-07T08:45:33;68.10;49.74;77.86;;
57092;Laerm;42968;52.094;4.328;2023-05-07T08:47:59;67.26;48.18;77.11;;
57092;Laerm;42968;52.094;4.328;2023-05-07T08:50:24;64.61;44.11;75.26;;
57092;Laerm;42968;52.094;4.328;2023-05-07T08:52:50;67.68;45.83;78.73;;
57092;Laerm;42968;52.094;4.328;2023-05-07T08:55:15;66.53;50.59;74.12;;
57092;Laerm;42968;52.094;4.328;2023-05-07T08:57:41;69.46;47.81;78.91;;
57092;Laerm;42968;52.094;4.328;2023-05-07T09:00:06;67.96;43.63;78.48;;
57092;Laerm;42968;52.094;4.328;2023-05-07T09:02:32;66.07;43.14;73.47;;
57092;Laerm;42968;52.094;4.328;2023-05-07T09:04:57;66.19;44.42;77.14;;
57092;Laerm;42968;52.094;4.328;2023-05-07T09:07:23;67.40;42.47;76.77;;
57092;Laerm;42968;52.094;4.328;2023-05-07T09:09:48;67.63;42.76;76.55;;
57092;Laerm;42968;52.094;4.328;2023-05-07T09:12:14;66.57;43.58;76.20;;
57092;Laerm;42968;52.094;4.328;2023-05-07T09:14:39;68.61;50.98;77.75;;
57092;Laerm;42968;52.094;4.328;2023-05-07T09:17:04;67.26;45.23;76.59;;
57092;Laerm;42968;52.094;4.328;2023-05-07T09:19:30;68.83;48.25;78.33;;
57092;Laerm;42968;52.094;4.328;2023-05-07T09:22:02;66.83;45.42;75.02;;
57092;Laerm;42968;52.094;4.328;2023-05-07T09:24:27;67.72;46.48;77.44;;
57092;Laerm;42968;52.094;4.328;2023-05-07T09:26:57;67.99;51.56;76.40;;
57092;Laerm;42968;52.094;4.328;2023-05-07T09:29:22;69.25;49.32;78.79;;
57092;Laerm;42968;52.094;4.328;2023-05-07T09:31:48;67.22;52.96;75.94;;
57092;Laerm;42968;52.094;4.328;2023-05-07T09:34:13;68.22;45.89;76.35;;
57092;Laerm;42968;52.094;4.328;2023-05-07T09:36:38;67.39;45.07;79.42;;
57092;Laerm;42968;52.094;4.328;2023-05-07T09:39:03;68.76;43.55;80.14;;
57092;Laerm;42968;52.094;4.328;2023-05-07T09:41:29;69.56;47.02;78.46;;
57092;Laerm;42968;52.094;4.328;2023-05-07T09:43:55;68.15;46.76;76.97;;
57092;Laerm;42968;52.094;4.328;2023-05-07T09:46:22;68.91;49.92;83.78;;
57092;Laerm;42968;52.094;4.328;2023-05-07T09:48:50;66.69;47.04;75.71;;
57092;Laerm;42968;52.094;4.328;2023-05-07T09:53:45;67.30;45.94;77.79;;
57092;Laerm;42968;52.094;4.328;2023-05-07T09:56:11;69.19;50.04;79.50;;
57092;Laerm;42968;52.094;4.328;2023-05-07T09:58:37;68.42;52.85;76.44;;
57092;Laerm;42968;52.094;4.328;2023-05-07T10:01:04;68.18;46.69;79.06;;
57092;Laerm;42968;52.094;4.328;2023-05-07T10:03:30;71.99;57.56;91.41;;
57092;Laerm;42968;52.094;4.328;2023-05-07T10:05:58;68.72;51.27;81.49;;
57092;Laerm;42968;52.094;4.328;2023-05-07T10:08:23;68.37;54.39;77.36;;
57092;Laerm;42968;52.094;4.328;2023-05-07T10:10:49;66.93;47.91;78.04;;
57092;Laerm;42968;52.094;4.328;2023-05-07T10:13:14;65.73;48.99;76.35;;
57092;Laerm;42968;52.094;4.328;2023-05-07T10:15:39;67.86;45.80;75.69;;
57092;Laerm;42968;52.094;4.328;2023-05-07T10:18:06;66.91;44.90;76.82;;
57092;Laerm;42968;52.094;4.328;2023-05-07T10:20:31;69.00;50.38;77.97;;
57092;Laerm;42968;52.094;4.328;2023-05-07T10:22:58;68.54;52.19;79.55;;
57092;Laerm;42968;52.094;4.328;2023-05-07T10:25:25;67.96;50.89;78.18;;
57092;Laerm;42968;52.094;4.328;2023-05-07T10:27:51;67.55;52.79;76.48;;
57092;Laerm;42968;52.094;4.328;2023-05-07T10:33:01;69.70;49.94;83.72;;
57092;Laerm;42968;52.094;4.328;2023-05-07T10:35:31;67.89;48.74;79.63;;
57092;Laerm;42968;52.094;4.328;2023-05-07T10:37:57;69.68;50.96;80.17;;
57092;Laerm;42968;52.094;4.328;2023-05-07T10:40:23;68.12;49.25;80.53;;
57092;Laerm;42968;52.094;4.328;2023-05-07T10:42:55;68.09;48.95;77.22;;
57092;Laerm;42968;52.094;4.328;2023-05-07T10:45:21;68.47;48.77;75.97;;
57092;Laerm;42968;52.094;4.328;2023-05-07T10:50:30;69.77;43.54;84.61;;
57092;Laerm;42968;52.094;4.328;2023-05-07T10:55:39;68.36;48.18;77.28;;
57092;Laerm;42968;52.094;4.328;2023-05-07T10:58:22;69.73;46.95;79.53;;
57092;Laerm;42968;52.094;4.328;2023-05-07T11:00:48;69.09;54.36;76.81;;
57092;Laerm;42968;52.094;4.328;2023-05-07T11:03:14;66.84;45.80;75.11;;
57092;Laerm;42968;52.094;4.328;2023-05-07T11:05:40;67.65;48.10;77.77;;
57092;Laerm;42968;52.094;4.328;2023-05-07T11:08:05;67.99;56.23;75.66;;
57092;Laerm;42968;52.094;4.328;2023-05-07T11:13:15;68.40;48.67;77.40;;
57092;Laerm;42968;52.094;4.328;2023-05-07T11:15:44;67.69;46.93;76.18;;
57092;Laerm;42968;52.094;4.328;2023-05-07T11:18:11;68.56;47.34;76.08;;
57092;Laerm;42968;52.094;4.328;2023-05-07T11:20:46;69.17;51.41;76.92;;
57092;Laerm;42968;52.094;4.328;2023-05-07T11:26:09;68.49;45.57;77.26;;
57092;Laerm;42968;52.094;4.328;2023-05-07T11:28:38;70.73;47.40;79.08;;
57092;Laerm;42968;52.094;4.328;2023-05-07T11:31:04;69.34;47.04;77.82;;
57092;Laerm;42968;52.094;4.328;2023-05-07T11:33:29;67.65;50.77;75.95;;
57092;Laerm;42968;52.094;4.328;2023-05-07T11:35:55;67.49;48.63;83.85;;
57092;Laerm;42968;52.094;4.328;2023-05-07T11:38:20;69.00;54.40;79.39;;
57092;Laerm;42968;52.094;4.328;2023-05-07T11:40:49;67.58;49.55;76.19;;
57092;Laerm;42968;52.094;4.328;2023-05-07T11:43:15;68.28;43.68;77.58;;
57092;Laerm;42968;52.094;4.328;2023-05-07T11:45:41;68.53;46.18;77.08;;
57092;Laerm;42968;52.094;4.328;2023-05-07T11:48:06;68.80;49.85;79.89;;
57092;Laerm;42968;52.094;4.328;2023-05-07T11:50:31;70.02;53.01;79.92;;
57092;Laerm;42968;52.094;4.328;2023-05-07T11:52:57;67.82;49.65;75.90;;
57092;Laerm;42968;52.094;4.328;2023-05-07T11:55:23;67.54;46.91;77.35;;
57092;Laerm;42968;52.094;4.328;2023-05-07T11:57:49;69.80;52.89;79.24;;
57092;Laerm;42968;52.094;4.328;2023-05-07T12:00:15;68.99;47.02;79.26;;
57092;Laerm;42968;52.094;4.328;2023-05-07T12:02:41;68.30;49.11;78.71;;
57092;Laerm;42968;52.094;4.328;2023-05-07T12:05:07;69.09;54.39;78.67;;
57092;Laerm;42968;52.094;4.328;2023-05-07T12:07:33;69.03;47.54;77.68;;
57092;Laerm;42968;52.094;4.328;2023-05-07T12:09:58;68.61;43.99;77.46;;
57092;Laerm;42968;52.094;4.328;2023-05-07T12:12:23;68.64;54.72;78.07;;
57092;Laerm;42968;52.094;4.328;2023-05-07T12:14:49;67.62;49.65;76.30;;
57092;Laerm;42968;52.094;4.328;2023-05-07T12:17:14;68.50;47.70;75.78;;
57092;Laerm;42968;52.094;4.328;2023-05-07T12:19:40;68.39;49.25;75.44;;
57092;Laerm;42968;52.094;4.328;2023-05-07T12:22:07;68.94;57.81;79.36;;
57092;Laerm;42968;52.094;4.328;2023-05-07T12:27:10;67.98;50.40;74.76;;
57092;Laerm;42968;52.094;4.328;2023-05-07T12:29:36;68.67;50.46;82.58;;
57092;Laerm;42968;52.094;4.328;2023-05-07T12:32:04;70.20;51.51;76.62;;
57092;Laerm;42968;52.094;4.328;2023-05-07T12:34:29;67.82;47.52;77.86;;
57092;Laerm;42968;52.094;4.328;2023-05-07T12:36:56;68.58;45.77;77.63;;
57092;Laerm;42968;52.094;4.328;2023-05-07T12:39:21;68.58;49.21;82.38;;
57092;Laerm;42968;52.094;4.328;2023-05-07T12:41:53;67.80;43.39;76.96;;
57092;Laerm;42968;52.094;4.328;2023-05-07T12:44:21;67.71;45.57;77.18;;
57092;Laerm;42968;52.094;4.328;2023-05-07T12:46:46;67.91;46.38;76.41;;
57092;Laerm;42968;52.094;4.328;2023-05-07T12:49:12;67.42;50.66;76.86;;
57092;Laerm;42968;52.094;4.328;2023-05-07T12:51:37;68.62;46.93;76.49;;
57092;Laerm;42968;52.094;4.328;2023-05-07T12:54:02;68.41;55.56;75.97;;
57092;Laerm;42968;52.094;4.328;2023-05-07T12:56:30;69.18;45.89;78.43;;
57092;Laerm;42968;52.094;4.328;2023-05-07T12:58:57;66.85;46.25;74.52;;
57092;Laerm;42968;52.094;4.328;2023-05-07T13:01:22;69.18;54.77;84.37;;
57092;Laerm;42968;52.094;4.328;2023-05-07T13:03:53;68.59;49.30;77.79;;
57092;Laerm;42968;52.094;4.328;2023-05-07T13:06:19;67.68;46.91;78.37;;
57092;Laerm;42968;52.094;4.328;2023-05-07T13:08:44;68.62;47.08;76.90;;
57092;Laerm;42968;52.094;4.328;2023-05-07T13:11:09;68.80;43.09;81.18;;
57092;Laerm;42968;52.094;4.328;2023-05-07T13:13:35;67.59;49.15;75.38;;
57092;Laerm;42968;52.094;4.328;2023-05-07T13:16:01;68.31;49.28;77.24;;
57092;Laerm;42968;52.094;4.328;2023-05-07T13:18:29;70.02;48.73;78.28;;
57092;Laerm;42968;52.094;4.328;2023-05-07T13:20:54;68.56;52.30;77.90;;
57092;Laerm;42968;52.094;4.328;2023-05-07T13:23:20;67.80;51.07;74.58;;
57092;Laerm;42968;52.094;4.328;2023-05-07T13:25:45;67.88;51.61;76.55;;
57092;Laerm;42968;52.094;4.328;2023-05-07T13:28:11;67.57;47.55;76.70;;
57092;Laerm;42968;52.094;4.328;2023-05-07T13:30:36;67.89;50.51;76.41;;
57092;Laerm;42968;52.094;4.328;2023-05-07T13:33:02;68.95;48.18;79.94;;
57092;Laerm;42968;52.094;4.328;2023-05-07T13:35:27;76.97;46.55;94.68;;
57092;Laerm;42968;52.094;4.328;2023-05-07T13:37:53;68.59;51.56;75.62;;
57092;Laerm;42968;52.094;4.328;2023-05-07T13:40:19;67.99;43.09;77.94;;
57092;Laerm;42968;52.094;4.328;2023-05-07T13:42:44;67.16;46.93;75.51;;
57092;Laerm;42968;52.094;4.328;2023-05-07T13:45:10;68.21;52.65;77.25;;
57092;Laerm;42968;52.094;4.328;2023-05-07T13:47:35;68.18;46.48;79.71;;
57092;Laerm;42968;52.094;4.328;2023-05-07T13:50:01;69.73;48.42;82.03;;
57092;Laerm;42968;52.094;4.328;2023-05-07T13:52:26;67.10;53.12;81.56;;
57092;Laerm;42968;52.094;4.328;2023-05-07T13:54:51;68.57;45.36;78.26;;